Startpagina
METAR-TAF:

METAR-TAF

Vliegvelden :

Maputo, Mozambique

Luchthaven Maputo

breedte: 25-55S, lengte: 032-34E, hoogte: 39 m

Actueel weer

Dit bericht is 7 minuten geleden gemaakt, om 00:00 UTC
Wind 11 kt uit het noorden
Temperatuur 17°C
Vochtigheid 77%
Druk 1019 hPa
Zicht 10 km of meer
geen wolken onder 1500 m en geen cumulonimbus

METAR: FQMA 280000Z 01011KT CAVOK 17/13 Q1019 NOSIG

Tijdstip: 02:07 (00:07 UTC)

Verwachting

Dit bericht is 8 uur en het 7 minuten geleden gemaakt, om 16:00 UTC
Verwachting geldig van 27 om 18 UTC tot 28 om 24 UTC
Wind 12 kt uit het noorden
Zicht 10 km of meer
geen wolken onder 1500 m en geen cumulonimbus
Wijzigt naar
van 28 om 12 UTC tot 28 om 14 UTC
Wind 10 kt uit het oostnoordoosten
Weinig wolken op 2500 ft
Wijzigt naar
van 28 om 18 UTC tot 28 om 20 UTC
Wind 4 kt uit variabele richting
Verspreide wolken op 2000 ft

TAF: FQMA 271600Z 2718/2824 35012KT CAVOK BECMG 2812/2814 06010KT FEW025 BECMG 2818/2820 VRB04KT SCT020 TN14/2802ZTX29/2812Z

Waarnemingen en weersverwachtingen van meer dan 4000 vliegvelden (METAR en TAF).

De beschikbare stations zijn de gele en rode punten op de kaart.

Ga met uw muis naar het station om de naam te zien.

Klik dan om waarnemingen en weersverwachtingen te zien.

kaart wijzigen: klik op de groene knoppen met een zwart kruis om in te zoomen, op de groene knop met een streepje om uit te zoomen of op de groene pijlen voor aangrenzende kaarten.


METAR-TAF: